KBXK

Buckeye Municipal Airport

Buckeye, Arizona, USA
METAR KBXK 250035Z AUTO 22008KT 10SM CLR 34/M04 A2987 RMK AO1
Observed Flight Rules
May-25 @ 00:35 UTC (20 minutes ago) Visual Flight Rules
Wind Visibility Clouds
220° at 8 knots 10 miles
  • Clear skies
Temperatures Readings
Current 34°C / 93°F
Dewpoint -4°C / 25°F
Humidity 8%
Altimeter 29.87" Hg
Pressure 1012 hPa
Elevation 315
METAR KBXK 250035Z AUTO 22008KT 10SM CLR 34/M04 A2987 RMK AO1
Observed Flight Rules
May-25 @ 00:35 UTC
(20 minutes ago)
VFR
Wind Visibility
220° at 8 knots 10 miles
Clouds
  • Clear skies
Temperature Dewpoint
34°C / 93°F -4°C / 25°F
Humidity Altimeter Pressure
8% 29.87" Hg 1012 hPa